createdAt,value
2023-01-09T00:02:04.314Z,9.66
2023-01-09T00:04:31.026Z,9.80
2023-01-09T00:06:57.831Z,9.83
2023-01-09T00:09:24.799Z,9.63
2023-01-09T00:11:52.387Z,9.72
2023-01-09T00:14:19.696Z,9.64
2023-01-09T00:16:46.466Z,9.48
2023-01-09T00:19:13.226Z,9.68
2023-01-09T00:21:40.268Z,9.82
2023-01-09T00:24:07.411Z,9.73
2023-01-09T00:26:35.716Z,9.72
2023-01-09T00:29:03.859Z,9.63
2023-01-09T00:31:31.096Z,9.63
2023-01-09T00:33:57.669Z,9.60
2023-01-09T00:36:24.396Z,9.59
2023-01-09T00:38:51.404Z,9.58
2023-01-09T00:41:27.631Z,9.65
2023-01-09T00:43:58.336Z,9.62
2023-01-09T00:46:33.880Z,9.63
2023-01-09T00:49:04.561Z,9.53
2023-01-09T00:51:31.328Z,9.55
2023-01-09T00:53:58.293Z,9.63
2023-01-09T00:56:26.020Z,9.75
2023-01-09T00:58:53.547Z,9.74
2023-01-09T01:01:20.445Z,9.71
2023-01-09T01:03:47.420Z,9.65
2023-01-09T01:06:32.608Z,9.69
2023-01-09T01:08:59.250Z,9.63
2023-01-09T01:11:25.896Z,9.72
2023-01-09T01:13:52.629Z,9.52
2023-01-09T01:16:19.811Z,9.55
2023-01-09T01:18:46.628Z,9.58
2023-01-09T01:21:14.329Z,9.58
2023-01-09T01:23:48.069Z,9.69
2023-01-09T01:26:19.003Z,9.70
2023-01-09T01:28:52.022Z,9.58
2023-01-09T01:31:19.653Z,9.50
2023-01-09T01:33:46.925Z,9.46
2023-01-09T01:36:18.208Z,9.46
2023-01-09T01:38:48.645Z,9.42
2023-01-09T01:41:29.743Z,9.34
2023-01-09T01:44:03.715Z,9.43
2023-01-09T01:46:32.847Z,9.42
2023-01-09T01:49:20.498Z,9.42
2023-01-09T01:51:52.026Z,9.46
2023-01-09T01:54:26.037Z,9.30
2023-01-09T01:56:59.814Z,9.40
2023-01-09T01:59:32.930Z,9.42
2023-01-09T02:02:02.297Z,9.46
2023-01-09T02:04:30.897Z,9.40
2023-01-09T02:07:00.643Z,9.39
2023-01-09T02:09:28.013Z,9.40
2023-01-09T02:11:57.720Z,9.31
2023-01-09T02:14:27.705Z,9.27
2023-01-09T02:17:24.683Z,9.28
2023-01-09T02:20:27.518Z,9.27
2023-01-09T02:23:30.287Z,9.27
2023-01-09T02:26:38.893Z,9.22
2023-01-09T02:29:26.786Z,9.26
2023-01-09T02:32:04.041Z,9.32
2023-01-09T02:35:13.265Z,9.26
2023-01-09T02:37:57.942Z,9.17
2023-01-09T02:40:38.754Z,9.26
2023-01-09T02:43:07.336Z,9.32
2023-01-09T02:45:34.047Z,9.35
2023-01-09T02:48:00.728Z,9.37
2023-01-09T02:50:41.454Z,9.29
2023-01-09T02:53:31.030Z,9.31
2023-01-09T02:56:29.476Z,9.24
2023-01-09T02:59:07.090Z,9.30
2023-01-09T03:01:49.885Z,9.28
2023-01-09T03:04:22.917Z,9.30
2023-01-09T03:06:59.805Z,9.23
2023-01-09T03:09:29.216Z,9.26
2023-01-09T03:12:02.475Z,9.20
2023-01-09T03:14:35.003Z,9.25
2023-01-09T03:17:06.070Z,9.29
2023-01-09T03:19:34.206Z,9.27
2023-01-09T03:22:01.169Z,9.34
2023-01-09T03:24:27.969Z,9.29
2023-01-09T03:26:55.331Z,9.36
2023-01-09T03:29:22.346Z,9.44
2023-01-09T03:31:49.039Z,9.45
2023-01-09T03:34:15.652Z,9.44
2023-01-09T03:36:42.268Z,9.44
2023-01-09T03:39:09.164Z,9.32
2023-01-09T03:41:35.872Z,9.30
2023-01-09T03:44:02.550Z,9.35
2023-01-09T03:46:29.258Z,9.30
2023-01-09T03:48:55.936Z,9.33
2023-01-09T03:51:22.624Z,9.41
2023-01-09T03:53:49.318Z,9.40
2023-01-09T03:56:16.007Z,9.36
2023-01-09T03:58:42.623Z,9.40
2023-01-09T04:01:12.524Z,9.28
2023-01-09T04:03:39.524Z,9.24
2023-01-09T04:06:06.470Z,9.33
2023-01-09T04:08:33.443Z,9.28
2023-01-09T04:11:00.165Z,9.35
2023-01-09T04:13:26.840Z,9.43
2023-01-09T04:15:53.799Z,9.38
2023-01-09T04:18:20.539Z,9.43
2023-01-09T04:20:48.440Z,9.44
2023-01-09T04:23:15.488Z,9.43
2023-01-09T04:25:42.125Z,9.45
2023-01-09T04:28:09.152Z,9.33
2023-01-09T04:30:35.917Z,9.33
2023-01-09T04:33:02.708Z,9.31
2023-01-09T04:35:29.335Z,9.23
2023-01-09T04:37:56.144Z,9.25
2023-01-09T04:40:22.826Z,9.38
2023-01-09T04:42:49.466Z,9.35
2023-01-09T04:45:17.231Z,9.46
2023-01-09T04:47:44.596Z,9.42
2023-01-09T04:50:12.783Z,9.35
2023-01-09T04:52:39.787Z,9.27
2023-01-09T04:55:07.771Z,9.24
2023-01-09T04:57:35.481Z,9.27
2023-01-09T05:00:02.628Z,9.06
2023-01-09T05:02:30.881Z,9.14
2023-01-09T05:04:57.593Z,9.17
2023-01-09T05:07:24.258Z,9.06
2023-01-09T05:09:50.919Z,8.90
2023-01-09T05:12:17.830Z,9.02
2023-01-09T05:14:44.440Z,8.92
2023-01-09T05:17:11.098Z,8.96
2023-01-09T05:19:37.895Z,8.97
2023-01-09T05:22:04.757Z,8.86
2023-01-09T05:24:31.622Z,8.92
2023-01-09T05:26:58.439Z,8.96
2023-01-09T05:29:25.331Z,9.05
2023-01-09T05:31:52.775Z,9.08
2023-01-09T05:34:20.267Z,9.12
2023-01-09T05:36:47.018Z,9.06
2023-01-09T05:39:13.702Z,8.91
2023-01-09T05:41:40.416Z,8.78
2023-01-09T05:44:07.153Z,8.65
2023-01-09T05:46:33.951Z,8.60
2023-01-09T05:49:00.648Z,8.61
2023-01-09T05:51:27.438Z,8.73
2023-01-09T05:53:54.217Z,8.56
2023-01-09T05:56:21.135Z,8.68
2023-01-09T05:58:48.260Z,8.67
2023-01-09T06:01:14.954Z,8.65
2023-01-09T06:03:41.922Z,8.62
2023-01-09T06:06:08.732Z,8.63
2023-01-09T06:08:35.345Z,8.62
2023-01-09T06:11:02.026Z,8.69
2023-01-09T06:13:28.725Z,8.69
2023-01-09T06:15:55.419Z,8.80
2023-01-09T06:18:22.182Z,8.75
2023-01-09T06:20:48.797Z,8.70
2023-01-09T06:23:15.427Z,8.77
2023-01-09T06:25:42.497Z,8.69
2023-01-09T06:28:09.313Z,8.67
2023-01-09T06:30:36.128Z,8.65
2023-01-09T06:33:02.782Z,8.69
2023-01-09T06:35:29.569Z,8.63
2023-01-09T06:37:57.089Z,8.60
2023-01-09T06:40:23.802Z,8.54
2023-01-09T06:42:50.480Z,8.50
2023-01-09T06:45:17.722Z,8.44
2023-01-09T06:47:44.489Z,8.57
2023-01-09T06:50:11.762Z,8.53
2023-01-09T06:52:38.830Z,8.60
2023-01-09T06:55:06.202Z,8.56
2023-01-09T06:57:32.832Z,8.48
2023-01-09T06:59:59.564Z,8.42
2023-01-09T07:02:26.398Z,8.30
2023-01-09T07:04:53.027Z,8.25
2023-01-09T07:07:22.121Z,8.29
2023-01-09T07:09:48.882Z,8.32
2023-01-09T07:12:15.573Z,8.37
2023-01-09T07:14:42.280Z,8.32
2023-01-09T07:17:12.323Z,8.23
2023-01-09T07:19:39.108Z,8.06
2023-01-09T07:22:05.797Z,8.14
2023-01-09T07:24:32.413Z,8.11
2023-01-09T07:26:59.041Z,8.19
2023-01-09T07:29:25.762Z,8.12
2023-01-09T07:31:52.393Z,8.10
2023-01-09T07:34:19.566Z,8.07
2023-01-09T07:36:47.844Z,8.18
2023-01-09T07:39:17.565Z,8.13
2023-01-09T07:41:45.414Z,8.10
2023-01-09T07:44:13.113Z,8.05
2023-01-09T07:46:40.313Z,7.95
2023-01-09T07:49:07.388Z,7.99
2023-01-09T07:51:34.144Z,8.08
2023-01-09T07:54:00.804Z,8.07
2023-01-09T07:56:27.701Z,7.94
2023-01-09T07:58:54.289Z,8.08
2023-01-09T08:01:21.069Z,8.02
2023-01-09T08:03:47.863Z,7.96
2023-01-09T08:06:18.920Z,7.94
2023-01-09T08:08:46.539Z,7.88
2023-01-09T08:11:13.452Z,7.90
2023-01-09T08:13:40.622Z,8.05
2023-01-09T08:16:07.535Z,8.00
2023-01-09T08:18:34.551Z,8.12
2023-01-09T08:21:01.113Z,8.03
2023-01-09T08:23:27.798Z,8.12
2023-01-09T08:25:54.491Z,7.99
2023-01-09T08:28:21.144Z,8.03
2023-01-09T08:30:47.940Z,8.01
2023-01-09T08:33:15.324Z,8.07
2023-01-09T08:35:44.090Z,8.06
2023-01-09T08:38:11.247Z,8.12
2023-01-09T08:40:38.136Z,8.11
2023-01-09T08:43:23.171Z,8.13
2023-01-09T08:46:08.612Z,8.02
2023-01-09T08:48:35.368Z,7.87
2023-01-09T08:51:02.360Z,7.95
2023-01-09T08:53:30.419Z,8.04
2023-01-09T08:55:57.128Z,8.01
2023-01-09T08:58:23.795Z,8.15
2023-01-09T09:00:50.585Z,8.24
2023-01-09T09:03:17.729Z,8.07
2023-01-09T09:05:46.682Z,8.22
2023-01-09T09:08:13.817Z,8.32
2023-01-09T09:10:40.451Z,8.27
2023-01-09T09:13:07.158Z,8.25
2023-01-09T09:15:34.576Z,8.33
2023-01-09T09:18:03.632Z,8.22
2023-01-09T09:20:35.796Z,8.30
2023-01-09T09:23:02.863Z,8.46
2023-01-09T09:25:29.687Z,8.58
2023-01-09T09:27:56.466Z,8.59
2023-01-09T09:30:24.119Z,8.65
2023-01-09T09:32:50.909Z,8.52
2023-01-09T09:35:18.128Z,8.52
2023-01-09T09:37:54.275Z,8.61
2023-01-09T09:40:41.946Z,8.59
2023-01-09T09:43:57.865Z,8.57
2023-01-09T09:46:37.875Z,8.50
2023-01-09T09:49:18.949Z,8.59
2023-01-09T09:52:03.953Z,8.56
2023-01-09T09:54:35.204Z,8.68
2023-01-09T09:57:06.713Z,8.53
2023-01-09T09:59:37.048Z,8.44
2023-01-09T10:02:09.840Z,8.63
2023-01-09T10:04:41.003Z,8.75
2023-01-09T10:07:20.192Z,8.73
2023-01-09T10:10:00.516Z,8.75
2023-01-09T10:12:33.632Z,8.80
2023-01-09T10:15:06.899Z,8.67
2023-01-09T10:17:59.912Z,8.65
2023-01-09T10:20:38.549Z,8.63
2023-01-09T10:23:28.132Z,8.62
2023-01-09T10:26:09.924Z,8.62
2023-01-09T10:29:15.174Z,8.60
2023-01-09T10:31:58.062Z,8.57
2023-01-09T10:34:40.621Z,8.69
2023-01-09T10:37:18.591Z,8.67
2023-01-09T10:40:07.813Z,8.45
2023-01-09T10:42:44.547Z,8.45
2023-01-09T10:45:21.000Z,8.49
2023-01-09T10:47:48.427Z,8.44
2023-01-09T10:50:26.701Z,8.48
2023-01-09T10:52:56.135Z,8.47
2023-01-09T10:55:44.697Z,8.29
2023-01-09T10:58:22.787Z,8.40
2023-01-09T11:00:50.993Z,8.41
2023-01-09T11:03:22.514Z,8.38
2023-01-09T11:05:54.399Z,8.55
2023-01-09T11:08:33.747Z,8.66
2023-01-09T11:11:02.059Z,8.82
2023-01-09T11:13:31.800Z,8.72
2023-01-09T11:16:10.592Z,8.56
2023-01-09T11:18:49.777Z,8.57
2023-01-09T11:21:40.595Z,8.42
2023-01-09T11:24:19.471Z,8.47
2023-01-09T11:26:50.557Z,8.39
2023-01-09T11:29:20.136Z,8.29
2023-01-09T11:31:55.866Z,8.33
2023-01-09T11:34:25.504Z,8.36
2023-01-09T11:36:54.802Z,8.25
2023-01-09T11:39:26.800Z,8.14
2023-01-09T11:41:57.112Z,8.24
2023-01-09T11:44:24.726Z,8.33
2023-01-09T11:46:51.701Z,8.42
2023-01-09T11:49:24.522Z,8.47
2023-01-09T11:52:17.272Z,8.49
2023-01-09T11:54:56.286Z,8.43
2023-01-09T11:57:24.883Z,8.58
2023-01-09T11:59:51.778Z,8.62
2023-01-09T12:02:38.891Z,8.64
2023-01-09T12:05:11.221Z,8.51
2023-01-09T12:07:53.473Z,8.40
2023-01-09T12:10:57.305Z,8.40
2023-01-09T12:13:46.972Z,8.52
2023-01-09T12:16:34.662Z,8.62
2023-01-09T12:19:26.982Z,8.61
2023-01-09T12:22:07.901Z,8.63
2023-01-09T12:24:56.431Z,8.61
2023-01-09T12:27:33.449Z,8.57
2023-01-09T12:30:16.940Z,8.47
2023-01-09T12:33:21.793Z,8.39
2023-01-09T12:36:01.531Z,8.43
2023-01-09T12:38:34.382Z,8.31
2023-01-09T12:41:00.932Z,8.61
2023-01-09T12:43:39.594Z,8.69
2023-01-09T12:46:18.077Z,8.63
2023-01-09T12:48:59.771Z,8.52
2023-01-09T12:51:46.255Z,8.47
2023-01-09T12:54:23.652Z,8.33
2023-01-09T12:57:00.844Z,8.42
2023-01-09T12:59:46.070Z,8.49
2023-01-09T13:02:27.877Z,8.52
2023-01-09T13:04:57.501Z,8.47
2023-01-09T13:07:33.920Z,8.44
2023-01-09T13:10:19.669Z,8.50
2023-01-09T13:12:49.164Z,8.71
2023-01-09T13:15:30.555Z,8.82
2023-01-09T13:18:14.128Z,8.83
2023-01-09T13:20:47.994Z,8.86
2023-01-09T13:23:28.932Z,8.88
2023-01-09T13:26:00.608Z,8.78
2023-01-09T13:28:53.797Z,8.96
2023-01-09T13:31:56.611Z,9.03
2023-01-09T13:34:26.772Z,9.13
2023-01-09T13:36:56.598Z,8.99
2023-01-09T13:39:26.504Z,9.06
2023-01-09T13:42:19.358Z,9.09
2023-01-09T13:44:48.528Z,9.04
2023-01-09T13:47:25.026Z,9.19
2023-01-09T13:49:51.819Z,9.23
2023-01-09T13:52:24.329Z,9.19
2023-01-09T13:54:59.995Z,9.12
2023-01-09T13:57:29.712Z,9.14
2023-01-09T14:00:19.225Z,9.20
2023-01-09T14:02:46.792Z,9.15
2023-01-09T14:05:15.585Z,9.08
2023-01-09T14:07:45.325Z,9.15
2023-01-09T14:10:30.995Z,9.10
2023-01-09T14:12:58.210Z,8.90
2023-01-09T14:15:36.230Z,8.93
2023-01-09T14:18:15.650Z,9.07
2023-01-09T14:20:46.591Z,9.20
2023-01-09T14:23:52.064Z,9.18
2023-01-09T14:26:43.477Z,9.22
2023-01-09T14:29:47.297Z,9.02
2023-01-09T14:32:22.694Z,9.04
2023-01-09T14:34:58.828Z,8.91
2023-01-09T14:37:27.969Z,8.90
2023-01-09T14:39:56.568Z,8.99
2023-01-09T14:42:28.942Z,9.05
2023-01-09T14:45:06.587Z,8.96
2023-01-09T14:47:51.975Z,8.98
2023-01-09T14:50:28.423Z,9.05
2023-01-09T14:53:04.717Z,8.95
2023-01-09T14:55:36.411Z,8.97
2023-01-09T14:58:20.842Z,8.84
2023-01-09T15:01:08.461Z,8.99
2023-01-09T15:03:42.757Z,8.97
2023-01-09T15:06:15.256Z,8.79
2023-01-09T15:08:46.140Z,8.69
2023-01-09T15:11:13.973Z,8.69
2023-01-09T15:13:47.690Z,8.65
2023-01-09T15:16:19.218Z,8.65
2023-01-09T15:18:56.122Z,8.67
2023-01-09T15:21:27.599Z,8.67
2023-01-09T15:23:54.319Z,8.60
2023-01-09T15:26:30.168Z,8.55
2023-01-09T15:29:15.427Z,8.49
2023-01-09T15:31:45.040Z,8.59
2023-01-09T15:34:21.293Z,8.62
2023-01-09T15:36:49.390Z,8.49
2023-01-09T15:39:31.543Z,8.55
2023-01-09T15:42:19.042Z,8.49
2023-01-09T15:44:48.795Z,8.53
2023-01-09T15:47:20.337Z,8.55
2023-01-09T15:49:47.540Z,8.62
2023-01-09T15:52:16.826Z,8.53
2023-01-09T15:54:46.590Z,8.44
2023-01-09T15:57:25.602Z,8.35
2023-01-09T15:59:57.379Z,8.27
2023-01-09T16:02:44.607Z,8.34
2023-01-09T16:05:19.257Z,8.29
2023-01-09T16:07:47.793Z,8.27
2023-01-09T16:10:29.196Z,8.36
2023-01-09T16:12:56.311Z,8.11
2023-01-09T16:15:23.244Z,8.09
2023-01-09T16:18:17.665Z,8.08
2023-01-09T16:20:45.400Z,8.07
2023-01-09T16:23:24.228Z,8.02
2023-01-09T16:26:03.632Z,8.03
2023-01-09T16:28:30.804Z,8.01
2023-01-09T16:31:09.108Z,8.00
2023-01-09T16:33:43.426Z,8.01
2023-01-09T16:36:10.848Z,7.89
2023-01-09T16:38:37.484Z,7.89
2023-01-09T16:41:25.086Z,7.94
2023-01-09T16:43:51.956Z,7.80
2023-01-09T16:46:21.239Z,7.97
2023-01-09T16:48:48.636Z,7.88
2023-01-09T16:51:21.700Z,7.84
2023-01-09T16:53:49.764Z,7.89
2023-01-09T16:56:29.715Z,7.95
2023-01-09T16:58:56.825Z,7.95
2023-01-09T17:01:23.953Z,7.91
2023-01-09T17:03:52.473Z,7.86
2023-01-09T17:06:27.070Z,7.94
2023-01-09T17:08:53.745Z,7.83
2023-01-09T17:11:24.295Z,7.79
2023-01-09T17:13:51.096Z,7.86
2023-01-09T17:16:18.409Z,7.99
2023-01-09T17:18:45.661Z,8.07
2023-01-09T17:21:25.089Z,8.02
2023-01-09T17:24:10.325Z,7.94
2023-01-09T17:26:57.186Z,7.82
2023-01-09T17:29:24.464Z,7.76
2023-01-09T17:31:51.118Z,7.86
2023-01-09T17:34:17.811Z,7.91
2023-01-09T17:36:44.811Z,7.85
2023-01-09T17:39:16.357Z,7.90
2023-01-09T17:41:44.978Z,7.81
2023-01-09T17:44:12.082Z,7.76
2023-01-09T17:46:41.798Z,7.75
2023-01-09T17:49:20.565Z,7.66
2023-01-09T17:51:48.017Z,7.73
2023-01-09T17:54:14.895Z,7.69
2023-01-09T17:56:49.196Z,7.69
2023-01-09T17:59:16.332Z,7.70
2023-01-09T18:01:44.640Z,7.77
2023-01-09T18:04:11.841Z,7.88
2023-01-09T18:06:38.920Z,7.88
2023-01-09T18:09:07.182Z,7.86
2023-01-09T18:11:34.302Z,7.84
2023-01-09T18:14:01.350Z,7.81
2023-01-09T18:16:29.350Z,7.85
2023-01-09T18:18:58.651Z,7.84
2023-01-09T18:21:27.053Z,7.85
2023-01-09T18:23:54.402Z,7.83
2023-01-09T18:26:22.213Z,7.91
2023-01-09T18:28:51.646Z,7.85
2023-01-09T18:31:22.889Z,7.88
2023-01-09T18:33:54.183Z,7.81
2023-01-09T18:36:23.735Z,7.85
2023-01-09T18:38:53.878Z,7.98
2023-01-09T18:41:21.535Z,7.88
2023-01-09T18:43:52.361Z,7.96
2023-01-09T18:46:23.958Z,8.04
2023-01-09T18:48:55.525Z,8.03
2023-01-09T18:51:23.778Z,7.98
2023-01-09T18:53:51.093Z,7.95
2023-01-09T18:56:19.982Z,7.99
2023-01-09T18:58:47.862Z,7.97
2023-01-09T19:01:15.374Z,8.02
2023-01-09T19:03:42.308Z,8.10
2023-01-09T19:06:09.689Z,8.01
2023-01-09T19:08:37.179Z,8.02
2023-01-09T19:11:04.639Z,8.02
2023-01-09T19:13:34.255Z,8.10
2023-01-09T19:16:02.461Z,8.09
2023-01-09T19:18:33.572Z,8.19
2023-01-09T19:21:01.223Z,8.14
2023-01-09T19:23:28.086Z,8.06
2023-01-09T19:25:54.973Z,8.06
2023-01-09T19:28:22.010Z,8.05
2023-01-09T19:30:55.810Z,7.98
2023-01-09T19:33:24.667Z,8.10
2023-01-09T19:35:52.695Z,8.10
2023-01-09T19:38:22.511Z,8.12
2023-01-09T19:40:49.436Z,7.99
2023-01-09T19:43:26.766Z,8.00
2023-01-09T19:45:57.014Z,7.97
2023-01-09T19:48:27.034Z,7.90
2023-01-09T19:51:22.164Z,8.00
2023-01-09T19:56:35.040Z,8.18
2023-01-09T19:59:03.488Z,8.19
2023-01-09T20:01:33.234Z,8.17
2023-01-09T20:04:04.187Z,8.25
2023-01-09T20:06:31.510Z,8.19
2023-01-09T20:09:00.838Z,8.29
2023-01-09T20:11:30.509Z,8.25
2023-01-09T20:13:57.158Z,8.26
2023-01-09T20:16:30.419Z,8.33
2023-01-09T20:19:00.582Z,8.32
2023-01-09T20:21:28.537Z,8.20
2023-01-09T20:23:58.084Z,8.17
2023-01-09T20:26:25.858Z,8.16
2023-01-09T20:28:53.560Z,8.19
2023-01-09T20:31:21.553Z,8.14
2023-01-09T20:33:51.147Z,8.27
2023-01-09T20:36:19.491Z,8.25
2023-01-09T20:38:46.118Z,8.17
2023-01-09T20:41:22.728Z,8.19
2023-01-09T20:43:58.033Z,8.19
2023-01-09T20:46:27.635Z,8.22
2023-01-09T20:48:59.193Z,8.16
2023-01-09T20:51:26.137Z,8.03
2023-01-09T20:53:55.891Z,8.09
2023-01-09T20:56:23.817Z,8.10
2023-01-09T20:58:51.256Z,8.10
2023-01-09T21:01:18.876Z,8.09
2023-01-09T21:03:46.103Z,8.06
2023-01-09T21:06:15.232Z,8.02
2023-01-09T21:08:42.960Z,7.97
2023-01-09T21:11:10.820Z,8.06
2023-01-09T21:13:38.248Z,8.10
2023-01-09T21:16:14.213Z,7.99
2023-01-09T21:18:43.366Z,8.06
2023-01-09T21:21:14.585Z,8.08
2023-01-09T21:23:49.180Z,8.09
2023-01-09T21:26:16.772Z,8.11
2023-01-09T21:28:48.746Z,8.15
2023-01-09T21:31:20.827Z,8.19
2023-01-09T21:33:49.134Z,8.21
2023-01-09T21:36:17.153Z,8.18
2023-01-09T21:38:43.831Z,8.12
2023-01-09T21:41:28.751Z,8.03
2023-01-09T21:44:14.192Z,8.00
2023-01-09T21:46:53.062Z,7.99
2023-01-09T21:49:20.906Z,7.94
2023-01-09T21:51:47.548Z,7.99
2023-01-09T21:54:14.536Z,8.00
2023-01-09T21:56:41.151Z,8.02
2023-01-09T21:59:08.163Z,7.98
2023-01-09T22:01:34.977Z,7.82
2023-01-09T22:04:01.912Z,7.89
2023-01-09T22:06:28.755Z,7.93
2023-01-09T22:08:56.181Z,8.01
2023-01-09T22:11:23.647Z,7.96
2023-01-09T22:13:50.890Z,7.89
2023-01-09T22:16:18.443Z,7.89
2023-01-09T22:18:45.307Z,7.87
2023-01-09T22:21:12.287Z,7.84
2023-01-09T22:23:39.110Z,7.67
2023-01-09T22:26:10.865Z,7.74
2023-01-09T22:28:37.605Z,7.74
2023-01-09T22:31:09.631Z,7.77
2023-01-09T22:33:37.244Z,7.79
2023-01-09T22:36:09.975Z,7.77
2023-01-09T22:38:37.192Z,7.76
2023-01-09T22:41:04.755Z,7.79
2023-01-09T22:43:31.878Z,7.73
2023-01-09T22:46:03.220Z,7.80
2023-01-09T22:48:34.659Z,7.83
2023-01-09T22:51:02.741Z,7.89
2023-01-09T22:53:30.689Z,7.87
2023-01-09T22:55:59.040Z,7.85
2023-01-09T22:58:27.761Z,7.76
2023-01-09T23:00:54.800Z,7.74
2023-01-09T23:03:21.492Z,7.87
2023-01-09T23:05:48.865Z,7.81
2023-01-09T23:08:15.940Z,7.85
2023-01-09T23:10:42.701Z,7.90
2023-01-09T23:13:09.411Z,7.88
2023-01-09T23:15:36.008Z,7.86
2023-01-09T23:18:02.831Z,7.81
2023-01-09T23:20:29.535Z,7.89
2023-01-09T23:22:58.302Z,7.90
2023-01-09T23:25:25.537Z,7.87
2023-01-09T23:27:52.382Z,7.96
2023-01-09T23:30:19.070Z,7.94
2023-01-09T23:32:45.962Z,7.96
2023-01-09T23:35:12.541Z,8.00
2023-01-09T23:37:39.277Z,7.92
2023-01-09T23:40:06.187Z,7.89
2023-01-09T23:42:51.585Z,7.89
2023-01-09T23:45:18.453Z,7.90
2023-01-09T23:47:45.183Z,7.86
2023-01-09T23:50:11.893Z,7.87
2023-01-09T23:52:38.617Z,7.95
2023-01-09T23:55:05.828Z,7.93
2023-01-09T23:57:32.512Z,7.88
2023-01-09T23:59:59.436Z,7.82
